sensor_id;sensor_type;location;lat;lon;timestamp;pressure;altitude;pressure_sealevel;temperature;humidity
56992;BME280;42885;49.754;18.636;2024-03-22T00:02:42;98599.13;;;15.63;65.22
56992;BME280;42885;49.754;18.636;2024-03-22T00:05:31;98595.27;;;15.61;65.55
56992;BME280;42885;49.754;18.636;2024-03-22T00:08:20;98606.03;;;15.47;67.69
56992;BME280;42885;49.754;18.636;2024-03-22T00:11:10;98598.00;;;15.43;68.58
56992;BME280;42885;49.754;18.636;2024-03-22T00:14:01;98601.86;;;15.55;68.42
56992;BME280;42885;49.754;18.636;2024-03-22T00:16:50;98601.50;;;15.49;70.06
56992;BME280;42885;49.754;18.636;2024-03-22T00:19:39;98597.66;;;15.53;70.15
56992;BME280;42885;49.754;18.636;2024-03-22T00:22:27;98590.00;;;15.61;70.51
56992;BME280;42885;49.754;18.636;2024-03-22T00:25:17;98592.38;;;15.53;71.42
56992;BME280;42885;49.754;18.636;2024-03-22T00:28:06;98588.92;;;15.52;71.58
56992;BME280;42885;49.754;18.636;2024-03-22T00:30:55;98587.30;;;15.33;73.82
56992;BME280;42885;49.754;18.636;2024-03-22T00:33:45;98591.59;;;15.28;75.10
56992;BME280;42885;49.754;18.636;2024-03-22T00:36:34;98591.00;;;15.30;75.27
56992;BME280;42885;49.754;18.636;2024-03-22T00:39:24;98596.32;;;15.41;75.10
56992;BME280;42885;49.754;18.636;2024-03-22T00:42:13;98591.97;;;15.35;75.46
56992;BME280;42885;49.754;18.636;2024-03-22T00:45:02;98592.91;;;15.28;76.25
56992;BME280;42885;49.754;18.636;2024-03-22T00:47:52;98596.53;;;15.38;76.01
56992;BME280;42885;49.754;18.636;2024-03-22T00:50:41;98592.98;;;15.51;74.71
56992;BME280;42885;49.754;18.636;2024-03-22T00:53:31;98592.13;;;15.45;74.95
56992;BME280;42885;49.754;18.636;2024-03-22T00:56:19;98589.58;;;15.37;75.82
56992;BME280;42885;49.754;18.636;2024-03-22T00:59:09;98591.77;;;15.49;75.56
56992;BME280;42885;49.754;18.636;2024-03-22T01:01:58;98591.74;;;15.32;76.55
56992;BME280;42885;49.754;18.636;2024-03-22T01:04:48;98593.79;;;15.40;76.30
56992;BME280;42885;49.754;18.636;2024-03-22T01:07:37;98592.20;;;15.26;77.58
56992;BME280;42885;49.754;18.636;2024-03-22T01:10:27;98593.94;;;15.08;78.50
56992;BME280;42885;49.754;18.636;2024-03-22T01:13:16;98587.25;;;15.16;78.57
56992;BME280;42885;49.754;18.636;2024-03-22T01:16:05;98587.59;;;15.11;79.28
56992;BME280;42885;49.754;18.636;2024-03-22T01:18:56;98583.59;;;15.05;79.79
56992;BME280;42885;49.754;18.636;2024-03-22T01:21:44;98585.97;;;15.27;78.49
56992;BME280;42885;49.754;18.636;2024-03-22T01:24:33;98587.48;;;15.18;78.81
56992;BME280;42885;49.754;18.636;2024-03-22T01:27:23;98584.64;;;15.27;78.33
56992;BME280;42885;49.754;18.636;2024-03-22T01:30:12;98580.68;;;15.21;78.46
56992;BME280;42885;49.754;18.636;2024-03-22T01:33:01;98577.41;;;15.12;79.63
56992;BME280;42885;49.754;18.636;2024-03-22T01:35:50;98580.55;;;15.23;78.81
56992;BME280;42885;49.754;18.636;2024-03-22T01:38:39;98579.48;;;15.25;78.82
56992;BME280;42885;49.754;18.636;2024-03-22T01:41:28;98569.70;;;15.03;80.70
56992;BME280;42885;49.754;18.636;2024-03-22T01:44:18;98577.61;;;15.03;81.22
56992;BME280;42885;49.754;18.636;2024-03-22T01:47:08;98567.87;;;14.98;81.93
56992;BME280;42885;49.754;18.636;2024-03-22T01:49:57;98568.91;;;15.14;80.99
56992;BME280;42885;49.754;18.636;2024-03-22T01:52:47;98565.28;;;15.04;81.76
56992;BME280;42885;49.754;18.636;2024-03-22T01:55:37;98567.16;;;14.96;82.97
56992;BME280;42885;49.754;18.636;2024-03-22T01:58:26;98568.71;;;14.93;83.50
56992;BME280;42885;49.754;18.636;2024-03-22T02:01:16;98569.10;;;15.05;82.47
56992;BME280;42885;49.754;18.636;2024-03-22T02:04:06;98571.79;;;14.86;84.30
56992;BME280;42885;49.754;18.636;2024-03-22T02:06:55;98571.36;;;14.98;83.87
56992;BME280;42885;49.754;18.636;2024-03-22T02:09:45;98578.87;;;14.86;84.88
56992;BME280;42885;49.754;18.636;2024-03-22T02:12:34;98576.95;;;14.88;85.17
56992;BME280;42885;49.754;18.636;2024-03-22T02:15:23;98580.66;;;14.85;85.03
56992;BME280;42885;49.754;18.636;2024-03-22T02:18:11;98578.67;;;15.00;84.85
56992;BME280;42885;49.754;18.636;2024-03-22T02:21:01;98584.13;;;15.16;83.65
56992;BME280;42885;49.754;18.636;2024-03-22T02:23:50;98584.23;;;15.14;84.07
56992;BME280;42885;49.754;18.636;2024-03-22T02:26:39;98582.28;;;15.05;85.05
56992;BME280;42885;49.754;18.636;2024-03-22T02:29:28;98581.80;;;15.00;85.03
56992;BME280;42885;49.754;18.636;2024-03-22T02:32:17;98582.46;;;15.21;83.68
56992;BME280;42885;49.754;18.636;2024-03-22T02:35:07;98575.88;;;15.26;83.46
56992;BME280;42885;49.754;18.636;2024-03-22T02:37:56;98578.20;;;15.01;85.51
56992;BME280;42885;49.754;18.636;2024-03-22T02:40:47;98579.73;;;14.98;85.63
56992;BME280;42885;49.754;18.636;2024-03-22T02:43:37;98585.52;;;15.03;85.92
56992;BME280;42885;49.754;18.636;2024-03-22T02:46:26;98580.19;;;14.86;86.54
56992;BME280;42885;49.754;18.636;2024-03-22T02:49:16;98590.00;;;14.90;87.14
56992;BME280;42885;49.754;18.636;2024-03-22T02:52:06;98585.75;;;15.00;87.16
56992;BME280;42885;49.754;18.636;2024-03-22T02:54:55;98584.28;;;14.96;87.22
56992;BME280;42885;49.754;18.636;2024-03-22T02:57:44;98588.23;;;14.96;87.23
56992;BME280;42885;49.754;18.636;2024-03-22T03:00:37;98585.22;;;14.70;88.84
56992;BME280;42885;49.754;18.636;2024-03-22T03:03:27;98583.02;;;14.64;90.04
56992;BME280;42885;49.754;18.636;2024-03-22T03:06:16;98580.29;;;14.66;90.30
56992;BME280;42885;49.754;18.636;2024-03-22T03:09:08;98575.70;;;14.43;92.65
56992;BME280;42885;49.754;18.636;2024-03-22T03:11:59;98581.81;;;14.63;91.86
56992;BME280;42885;49.754;18.636;2024-03-22T03:14:48;98571.88;;;14.79;90.60
56992;BME280;42885;49.754;18.636;2024-03-22T03:17:37;98575.56;;;14.58;90.89
56992;BME280;42885;49.754;18.636;2024-03-22T03:20:26;98577.89;;;14.68;90.40
56992;BME280;42885;49.754;18.636;2024-03-22T03:23:15;98575.36;;;14.80;89.66
56992;BME280;42885;49.754;18.636;2024-03-22T03:26:04;98573.02;;;14.94;88.42
56992;BME280;42885;49.754;18.636;2024-03-22T03:28:53;98567.41;;;14.98;87.74
56992;BME280;42885;49.754;18.636;2024-03-22T03:31:44;98563.27;;;15.13;86.54
56992;BME280;42885;49.754;18.636;2024-03-22T03:34:33;98569.23;;;15.04;86.42
56992;BME280;42885;49.754;18.636;2024-03-22T03:37:23;98563.35;;;15.00;85.88
56992;BME280;42885;49.754;18.636;2024-03-22T03:40:12;98559.40;;;15.00;85.92
56992;BME280;42885;49.754;18.636;2024-03-22T03:43:01;98554.23;;;14.98;86.21
56992;BME280;42885;49.754;18.636;2024-03-22T03:45:50;98547.36;;;14.84;86.52
56992;BME280;42885;49.754;18.636;2024-03-22T03:48:41;98548.66;;;14.79;87.13
56992;BME280;42885;49.754;18.636;2024-03-22T03:51:29;98550.25;;;14.87;86.67
56992;BME280;42885;49.754;18.636;2024-03-22T03:54:18;98540.95;;;14.76;86.19
56992;BME280;42885;49.754;18.636;2024-03-22T03:57:07;98542.48;;;14.72;86.60
56992;BME280;42885;49.754;18.636;2024-03-22T03:59:56;98543.38;;;14.79;86.19
56992;BME280;42885;49.754;18.636;2024-03-22T04:02:45;98537.20;;;14.97;84.68
56992;BME280;42885;49.754;18.636;2024-03-22T04:05:35;98544.39;;;14.95;84.13
56992;BME280;42885;49.754;18.636;2024-03-22T04:08:25;98542.30;;;15.11;82.79
56992;BME280;42885;49.754;18.636;2024-03-22T04:11:15;98542.30;;;15.11;82.79
56992;BME280;42885;49.754;18.636;2024-03-22T04:14:07;98545.08;;;14.85;84.49
56992;BME280;42885;49.754;18.636;2024-03-22T04:16:56;98546.88;;;14.66;85.77
56992;BME280;42885;49.754;18.636;2024-03-22T04:19:44;98542.90;;;14.61;86.32
56992;BME280;42885;49.754;18.636;2024-03-22T04:22:34;98538.35;;;14.38;88.17
56992;BME280;42885;49.754;18.636;2024-03-22T04:25:23;98533.48;;;14.26;89.56
56992;BME280;42885;49.754;18.636;2024-03-22T04:28:13;98546.29;;;14.25;90.07
56992;BME280;42885;49.754;18.636;2024-03-22T04:31:04;98539.64;;;14.33;89.75
56992;BME280;42885;49.754;18.636;2024-03-22T04:33:54;98549.68;;;14.14;90.45
56992;BME280;42885;49.754;18.636;2024-03-22T04:36:44;98543.30;;;14.24;90.08
56992;BME280;42885;49.754;18.636;2024-03-22T04:39:33;98547.88;;;14.15;90.75
56992;BME280;42885;49.754;18.636;2024-03-22T04:42:21;98534.55;;;14.24;89.77
56992;BME280;42885;49.754;18.636;2024-03-22T04:45:11;98530.98;;;14.30;89.35
56992;BME280;42885;49.754;18.636;2024-03-22T04:48:03;98527.44;;;14.18;89.59
56992;BME280;42885;49.754;18.636;2024-03-22T04:50:53;98525.72;;;13.93;90.76
56992;BME280;42885;49.754;18.636;2024-03-22T04:53:42;98524.41;;;14.12;89.71
56992;BME280;42885;49.754;18.636;2024-03-22T04:56:32;98522.70;;;14.24;88.44
56992;BME280;42885;49.754;18.636;2024-03-22T04:59:21;98520.73;;;14.14;88.87
56992;BME280;42885;49.754;18.636;2024-03-22T05:02:10;98528.06;;;14.22;88.31
56992;BME280;42885;49.754;18.636;2024-03-22T05:05:00;98528.98;;;14.15;88.88
56992;BME280;42885;49.754;18.636;2024-03-22T05:07:50;98526.12;;;14.18;88.54
56992;BME280;42885;49.754;18.636;2024-03-22T05:10:39;98529.45;;;14.15;89.53
56992;BME280;42885;49.754;18.636;2024-03-22T05:13:28;98524.91;;;13.98;90.23
56992;BME280;42885;49.754;18.636;2024-03-22T05:16:19;98522.05;;;14.14;89.43
56992;BME280;42885;49.754;18.636;2024-03-22T05:19:08;98518.48;;;14.21;88.68
56992;BME280;42885;49.754;18.636;2024-03-22T05:21:58;98526.81;;;14.28;88.81
56992;BME280;42885;49.754;18.636;2024-03-22T05:24:48;98525.20;;;14.20;89.05
56992;BME280;42885;49.754;18.636;2024-03-22T05:27:38;98532.13;;;14.39;87.68
56992;BME280;42885;49.754;18.636;2024-03-22T05:30:27;98535.75;;;14.44;86.86
56992;BME280;42885;49.754;18.636;2024-03-22T05:33:17;98537.77;;;14.83;84.28
56992;BME280;42885;49.754;18.636;2024-03-22T05:36:06;98533.22;;;14.85;82.83
56992;BME280;42885;49.754;18.636;2024-03-22T05:38:56;98541.84;;;14.88;82.55
56992;BME280;42885;49.754;18.636;2024-03-22T05:41:45;98536.81;;;14.84;82.81
56992;BME280;42885;49.754;18.636;2024-03-22T05:44:34;98544.63;;;14.92;82.68
56992;BME280;42885;49.754;18.636;2024-03-22T05:47:23;98547.80;;;14.78;82.27
56992;BME280;42885;49.754;18.636;2024-03-22T05:50:12;98547.80;;;14.78;82.27
56992;BME280;42885;49.754;18.636;2024-03-22T05:53:02;98550.00;;;14.66;83.62
56992;BME280;42885;49.754;18.636;2024-03-22T05:55:50;98543.61;;;14.81;83.08
56992;BME280;42885;49.754;18.636;2024-03-22T05:58:39;98546.52;;;14.90;82.31
56992;BME280;42885;49.754;18.636;2024-03-22T06:01:28;98547.13;;;14.69;83.31
56992;BME280;42885;49.754;18.636;2024-03-22T06:04:17;98554.33;;;14.72;83.72
56992;BME280;42885;49.754;18.636;2024-03-22T06:07:08;98546.82;;;14.73;83.86
56992;BME280;42885;49.754;18.636;2024-03-22T06:09:57;98548.16;;;14.79;83.34
56992;BME280;42885;49.754;18.636;2024-03-22T06:12:46;98547.18;;;14.75;83.16
56992;BME280;42885;49.754;18.636;2024-03-22T06:15:36;98541.21;;;14.78;83.11
56992;BME280;42885;49.754;18.636;2024-03-22T06:18:27;98533.67;;;14.79;83.04
56992;BME280;42885;49.754;18.636;2024-03-22T06:21:16;98540.25;;;14.79;83.50
56992;BME280;42885;49.754;18.636;2024-03-22T06:24:07;98542.78;;;14.81;83.38
56992;BME280;42885;49.754;18.636;2024-03-22T06:26:55;98535.88;;;14.67;83.93
56992;BME280;42885;49.754;18.636;2024-03-22T06:29:44;98538.47;;;14.80;83.03
56992;BME280;42885;49.754;18.636;2024-03-22T06:32:34;98546.52;;;14.65;83.56
56992;BME280;42885;49.754;18.636;2024-03-22T06:35:24;98539.98;;;14.52;84.19
56992;BME280;42885;49.754;18.636;2024-03-22T06:38:13;98531.70;;;14.45;84.85
56992;BME280;42885;49.754;18.636;2024-03-22T06:41:02;98529.73;;;14.23;86.14
56992;BME280;42885;49.754;18.636;2024-03-22T06:43:52;98529.45;;;14.15;86.56
56992;BME280;42885;49.754;18.636;2024-03-22T06:46:41;98527.59;;;14.41;85.38
56992;BME280;42885;49.754;18.636;2024-03-22T06:49:30;98526.86;;;14.64;83.22
56992;BME280;42885;49.754;18.636;2024-03-22T06:52:19;98526.31;;;14.71;82.31
56992;BME280;42885;49.754;18.636;2024-03-22T06:55:08;98526.52;;;14.68;79.25
56992;BME280;42885;49.754;18.636;2024-03-22T06:57:58;98531.30;;;14.63;77.60
56992;BME280;42885;49.754;18.636;2024-03-22T07:00:47;98530.86;;;14.26;77.04
56992;BME280;42885;49.754;18.636;2024-03-22T07:03:37;98534.81;;;14.26;76.33
56992;BME280;42885;49.754;18.636;2024-03-22T07:06:26;98535.23;;;14.20;76.70
56992;BME280;42885;49.754;18.636;2024-03-22T07:09:14;98541.36;;;14.21;75.18
56992;BME280;42885;49.754;18.636;2024-03-22T07:12:04;98538.98;;;14.10;74.81
56992;BME280;42885;49.754;18.636;2024-03-22T07:14:52;98536.52;;;14.14;74.59
56992;BME280;42885;49.754;18.636;2024-03-22T07:17:42;98532.66;;;13.94;75.51
56992;BME280;42885;49.754;18.636;2024-03-22T07:20:31;98542.08;;;14.04;74.62
56992;BME280;42885;49.754;18.636;2024-03-22T07:23:20;98539.83;;;13.92;74.97
56992;BME280;42885;49.754;18.636;2024-03-22T07:26:09;98540.23;;;13.99;75.11
56992;BME280;42885;49.754;18.636;2024-03-22T07:28:59;98541.39;;;14.08;74.32
56992;BME280;42885;49.754;18.636;2024-03-22T07:31:49;98542.57;;;14.09;73.93
56992;BME280;42885;49.754;18.636;2024-03-22T07:34:38;98540.86;;;14.02;73.70
56992;BME280;42885;49.754;18.636;2024-03-22T07:37:29;98538.16;;;14.10;74.04
56992;BME280;42885;49.754;18.636;2024-03-22T07:40:18;98538.72;;;14.21;72.46
56992;BME280;42885;49.754;18.636;2024-03-22T07:43:08;98535.80;;;14.31;71.51
56992;BME280;42885;49.754;18.636;2024-03-22T07:45:57;98534.52;;;14.18;70.45
56992;BME280;42885;49.754;18.636;2024-03-22T07:48:46;98535.34;;;14.18;70.37
56992;BME280;42885;49.754;18.636;2024-03-22T07:51:35;98538.00;;;14.06;70.78
56992;BME280;42885;49.754;18.636;2024-03-22T07:54:24;98536.16;;;14.13;70.85
56992;BME280;42885;49.754;18.636;2024-03-22T07:57:13;98532.67;;;14.13;70.69
56992;BME280;42885;49.754;18.636;2024-03-22T08:00:03;98528.30;;;14.00;70.63
56992;BME280;42885;49.754;18.636;2024-03-22T08:02:54;98522.48;;;14.08;71.03
56992;BME280;42885;49.754;18.636;2024-03-22T08:05:43;98521.78;;;14.12;71.37
56992;BME280;42885;49.754;18.636;2024-03-22T08:08:32;98519.55;;;14.18;71.02
56992;BME280;42885;49.754;18.636;2024-03-22T08:11:21;98520.26;;;14.34;70.56
56992;BME280;42885;49.754;18.636;2024-03-22T08:14:10;98521.55;;;14.15;70.54
56992;BME280;42885;49.754;18.636;2024-03-22T08:17:00;98520.89;;;14.06;71.78
56992;BME280;42885;49.754;18.636;2024-03-22T08:19:49;98516.45;;;14.00;70.95
56992;BME280;42885;49.754;18.636;2024-03-22T08:22:38;98522.75;;;13.79;71.09
56992;BME280;42885;49.754;18.636;2024-03-22T08:25:27;98519.57;;;13.87;71.29
56992;BME280;42885;49.754;18.636;2024-03-22T08:28:16;98517.77;;;14.00;70.33
56992;BME280;42885;49.754;18.636;2024-03-22T08:31:06;98522.73;;;13.92;70.33
56992;BME280;42885;49.754;18.636;2024-03-22T08:33:55;98525.07;;;14.02;70.23
56992;BME280;42885;49.754;18.636;2024-03-22T08:36:47;98525.70;;;14.06;69.87
56992;BME280;42885;49.754;18.636;2024-03-22T08:39:35;98520.33;;;14.08;69.89
56992;BME280;42885;49.754;18.636;2024-03-22T08:42:25;98517.41;;;13.99;69.73
56992;BME280;42885;49.754;18.636;2024-03-22T08:45:14;98513.20;;;14.15;69.44
56992;BME280;42885;49.754;18.636;2024-03-22T08:48:05;98518.58;;;14.33;68.99
56992;BME280;42885;49.754;18.636;2024-03-22T08:50:55;98525.38;;;14.11;70.21
56992;BME280;42885;49.754;18.636;2024-03-22T08:53:44;98522.70;;;14.05;70.65
56992;BME280;42885;49.754;18.636;2024-03-22T08:56:33;98512.79;;;14.27;69.56
56992;BME280;42885;49.754;18.636;2024-03-22T08:59:22;98516.38;;;14.26;69.32
56992;BME280;42885;49.754;18.636;2024-03-22T09:02:12;98511.94;;;14.27;69.61
56992;BME280;42885;49.754;18.636;2024-03-22T09:05:02;98516.39;;;14.08;70.32
56992;BME280;42885;49.754;18.636;2024-03-22T09:07:51;98517.61;;;14.15;70.38
56992;BME280;42885;49.754;18.636;2024-03-22T09:10:42;98527.30;;;13.96;70.85
56992;BME280;42885;49.754;18.636;2024-03-22T09:13:30;98529.67;;;13.93;70.80
56992;BME280;42885;49.754;18.636;2024-03-22T09:16:22;98534.41;;;13.88;70.77
56992;BME280;42885;49.754;18.636;2024-03-22T09:19:12;98530.63;;;13.92;70.09
56992;BME280;42885;49.754;18.636;2024-03-22T09:22:01;98527.38;;;14.07;69.80
56992;BME280;42885;49.754;18.636;2024-03-22T09:24:51;98531.71;;;13.95;69.21
56992;BME280;42885;49.754;18.636;2024-03-22T09:27:40;98527.60;;;14.04;69.00
56992;BME280;42885;49.754;18.636;2024-03-22T09:30:29;98527.54;;;13.98;69.16
56992;BME280;42885;49.754;18.636;2024-03-22T09:33:19;98524.48;;;14.04;68.62
56992;BME280;42885;49.754;18.636;2024-03-22T09:36:08;98528.46;;;14.10;68.70
56992;BME280;42885;49.754;18.636;2024-03-22T09:38:58;98526.98;;;14.19;67.99
56992;BME280;42885;49.754;18.636;2024-03-22T09:41:47;98526.91;;;14.26;67.38
56992;BME280;42885;49.754;18.636;2024-03-22T09:44:38;98522.80;;;14.22;67.39
56992;BME280;42885;49.754;18.636;2024-03-22T09:47:28;98523.69;;;14.10;68.08
56992;BME280;42885;49.754;18.636;2024-03-22T09:50:17;98520.73;;;13.96;69.06
56992;BME280;42885;49.754;18.636;2024-03-22T09:53:08;98512.97;;;14.18;68.66
56992;BME280;42885;49.754;18.636;2024-03-22T09:55:59;98515.02;;;14.39;66.70
56992;BME280;42885;49.754;18.636;2024-03-22T09:58:49;98508.56;;;14.43;66.39
56992;BME280;42885;49.754;18.636;2024-03-22T10:01:40;98505.64;;;14.54;66.37
56992;BME280;42885;49.754;18.636;2024-03-22T10:04:30;98501.12;;;14.62;65.76
56992;BME280;42885;49.754;18.636;2024-03-22T10:07:20;98505.51;;;14.55;66.23
56992;BME280;42885;49.754;18.636;2024-03-22T10:10:08;98503.34;;;14.49;65.79
56992;BME280;42885;49.754;18.636;2024-03-22T10:13:03;98506.36;;;14.80;65.41
56992;BME280;42885;49.754;18.636;2024-03-22T10:15:53;98502.34;;;14.93;64.26
56992;BME280;42885;49.754;18.636;2024-03-22T10:18:43;98497.98;;;15.11;62.77
56992;BME280;42885;49.754;18.636;2024-03-22T10:21:31;98498.34;;;15.12;62.32
56992;BME280;42885;49.754;18.636;2024-03-22T10:24:20;98492.37;;;15.38;61.78
56992;BME280;42885;49.754;18.636;2024-03-22T10:27:10;98487.84;;;15.40;60.81
56992;BME280;42885;49.754;18.636;2024-03-22T10:30:00;98487.81;;;15.35;61.07
56992;BME280;42885;49.754;18.636;2024-03-22T10:32:50;98485.56;;;15.36;60.58
56992;BME280;42885;49.754;18.636;2024-03-22T10:35:40;98488.20;;;15.41;60.21
56992;BME280;42885;49.754;18.636;2024-03-22T10:38:31;98483.52;;;15.62;59.90
56992;BME280;42885;49.754;18.636;2024-03-22T10:41:21;98478.84;;;15.60;59.69
56992;BME280;42885;49.754;18.636;2024-03-22T10:44:12;98469.23;;;15.48;60.37
56992;BME280;42885;49.754;18.636;2024-03-22T10:47:01;98465.19;;;15.66;60.45
56992;BME280;42885;49.754;18.636;2024-03-22T10:49:54;98450.98;;;16.19;58.09
56992;BME280;42885;49.754;18.636;2024-03-22T10:52:51;98448.60;;;16.43;57.38
56992;BME280;42885;49.754;18.636;2024-03-22T10:55:44;98443.11;;;16.40;56.50
56992;BME280;42885;49.754;18.636;2024-03-22T10:58:34;98444.66;;;16.37;56.27
56992;BME280;42885;49.754;18.636;2024-03-22T11:01:25;98434.57;;;16.90;54.76
56992;BME280;42885;49.754;18.636;2024-03-22T11:04:20;98437.04;;;16.55;55.19
56992;BME280;42885;49.754;18.636;2024-03-22T11:07:19;98434.53;;;16.21;56.04
56992;BME280;42885;49.754;18.636;2024-03-22T11:10:04;98431.34;;;16.65;55.87
56992;BME280;42885;49.754;18.636;2024-03-22T11:12:53;98428.62;;;16.83;55.70
56992;BME280;42885;49.754;18.636;2024-03-22T11:15:42;98418.20;;;16.75;55.68
56992;BME280;42885;49.754;18.636;2024-03-22T11:18:33;98415.11;;;17.28;54.44
56992;BME280;42885;49.754;18.636;2024-03-22T11:21:22;98410.45;;;17.42;53.71
56992;BME280;42885;49.754;18.636;2024-03-22T11:24:11;98403.16;;;16.97;54.18
56992;BME280;42885;49.754;18.636;2024-03-22T11:27:01;98395.28;;;16.70;54.16
56992;BME280;42885;49.754;18.636;2024-03-22T11:29:50;98389.56;;;16.38;54.93
56992;BME280;42885;49.754;18.636;2024-03-22T11:32:41;98387.45;;;15.82;55.83
56992;BME280;42885;49.754;18.636;2024-03-22T11:35:36;98389.97;;;16.28;55.27
56992;BME280;42885;49.754;18.636;2024-03-22T11:38:27;98385.71;;;16.42;56.25
56992;BME280;42885;49.754;18.636;2024-03-22T11:41:21;98374.92;;;16.61;54.21
56992;BME280;42885;49.754;18.636;2024-03-22T11:44:10;98361.80;;;17.23;53.05
56992;BME280;42885;49.754;18.636;2024-03-22T11:47:01;98357.12;;;16.69;53.76
56992;BME280;42885;49.754;18.636;2024-03-22T11:49:51;98366.08;;;16.93;54.14
56992;BME280;42885;49.754;18.636;2024-03-22T11:52:44;98349.11;;;16.80;54.02
56992;BME280;42885;49.754;18.636;2024-03-22T11:55:36;98357.09;;;16.53;54.82
56992;BME280;42885;49.754;18.636;2024-03-22T11:58:27;98350.13;;;16.73;54.43
56992;BME280;42885;49.754;18.636;2024-03-22T12:01:16;98355.39;;;16.89;53.90
56992;BME280;42885;49.754;18.636;2024-03-22T12:04:07;98354.41;;;16.59;54.62
56992;BME280;42885;49.754;18.636;2024-03-22T12:06:56;98344.53;;;16.61;54.88
56992;BME280;42885;49.754;18.636;2024-03-22T12:09:45;98330.48;;;17.13;53.00
56992;BME280;42885;49.754;18.636;2024-03-22T12:12:35;98332.11;;;16.51;54.56
56992;BME280;42885;49.754;18.636;2024-03-22T12:15:25;98322.38;;;16.73;53.90
56992;BME280;42885;49.754;18.636;2024-03-22T12:18:15;98321.03;;;16.58;54.49
56992;BME280;42885;49.754;18.636;2024-03-22T12:21:03;98321.81;;;17.01;53.91
56992;BME280;42885;49.754;18.636;2024-03-22T12:23:52;98307.91;;;17.40;52.12
56992;BME280;42885;49.754;18.636;2024-03-22T12:26:42;98307.91;;;16.19;54.35
56992;BME280;42885;49.754;18.636;2024-03-22T12:29:34;98309.02;;;16.90;54.10
56992;BME280;42885;49.754;18.636;2024-03-22T12:32:24;98302.05;;;17.36;53.23
56992;BME280;42885;49.754;18.636;2024-03-22T12:35:14;98306.14;;;17.34;52.08
56992;BME280;42885;49.754;18.636;2024-03-22T12:38:03;98301.94;;;17.67;51.50
56992;BME280;42885;49.754;18.636;2024-03-22T12:40:53;98301.89;;;16.44;53.73
56992;BME280;42885;49.754;18.636;2024-03-22T12:43:42;98290.52;;;16.38;55.26
56992;BME280;42885;49.754;18.636;2024-03-22T12:46:31;98285.05;;;16.98;53.60
56992;BME280;42885;49.754;18.636;2024-03-22T12:49:21;98279.12;;;16.90;52.72
56992;BME280;42885;49.754;18.636;2024-03-22T12:52:09;98276.83;;;17.87;51.55
56992;BME280;42885;49.754;18.636;2024-03-22T12:54:59;98277.36;;;18.00;50.73
56992;BME280;42885;49.754;18.636;2024-03-22T12:57:48;98273.30;;;17.47;51.13
56992;BME280;42885;49.754;18.636;2024-03-22T13:00:38;98273.85;;;18.06;49.43
56992;BME280;42885;49.754;18.636;2024-03-22T13:03:27;98274.19;;;18.16;49.61
56992;BME280;42885;49.754;18.636;2024-03-22T13:06:17;98283.21;;;18.67;47.57
56992;BME280;42885;49.754;18.636;2024-03-22T13:09:07;98276.95;;;17.85;48.42
56992;BME280;42885;49.754;18.636;2024-03-22T13:11:57;98274.05;;;18.52;46.91
56992;BME280;42885;49.754;18.636;2024-03-22T13:14:46;98275.45;;;18.56;46.50
56992;BME280;42885;49.754;18.636;2024-03-22T13:17:37;98270.60;;;18.65;46.59
56992;BME280;42885;49.754;18.636;2024-03-22T13:20:26;98264.98;;;17.26;48.52
56992;BME280;42885;49.754;18.636;2024-03-22T13:23:15;98261.21;;;17.19;49.07
56992;BME280;42885;49.754;18.636;2024-03-22T13:26:05;98251.15;;;16.72;49.60
56992;BME280;42885;49.754;18.636;2024-03-22T13:28:55;98255.91;;;16.78;50.04
56992;BME280;42885;49.754;18.636;2024-03-22T13:31:44;98247.54;;;17.39;49.37
56992;BME280;42885;49.754;18.636;2024-03-22T13:34:37;98242.66;;;17.34;49.26
56992;BME280;42885;49.754;18.636;2024-03-22T13:37:27;98239.47;;;17.80;48.82
56992;BME280;42885;49.754;18.636;2024-03-22T13:40:17;98235.22;;;17.44;48.52
56992;BME280;42885;49.754;18.636;2024-03-22T13:43:06;98231.89;;;16.91;50.55
56992;BME280;42885;49.754;18.636;2024-03-22T13:45:56;98230.73;;;17.15;49.83
56992;BME280;42885;49.754;18.636;2024-03-22T13:48:45;98224.66;;;17.09;50.86
56992;BME280;42885;49.754;18.636;2024-03-22T13:51:34;98222.36;;;17.10;50.10
56992;BME280;42885;49.754;18.636;2024-03-22T13:54:25;98217.02;;;17.00;50.98
56992;BME280;42885;49.754;18.636;2024-03-22T13:57:14;98216.63;;;16.89;51.22
56992;BME280;42885;49.754;18.636;2024-03-22T14:00:04;98208.75;;;16.73;50.97
56992;BME280;42885;49.754;18.636;2024-03-22T14:02:56;98203.83;;;17.45;49.67
56992;BME280;42885;49.754;18.636;2024-03-22T14:05:45;98198.91;;;17.11;50.01
56992;BME280;42885;49.754;18.636;2024-03-22T14:08:35;98192.72;;;16.90;50.55
56992;BME280;42885;49.754;18.636;2024-03-22T14:11:24;98191.58;;;16.83;50.42
56992;BME280;42885;49.754;18.636;2024-03-22T14:14:13;98187.11;;;16.74;50.55
56992;BME280;42885;49.754;18.636;2024-03-22T14:17:02;98191.67;;;17.03;50.15
56992;BME280;42885;49.754;18.636;2024-03-22T14:19:52;98189.03;;;17.13;50.24
56992;BME280;42885;49.754;18.636;2024-03-22T14:22:42;98191.43;;;17.36;49.96
56992;BME280;42885;49.754;18.636;2024-03-22T14:25:32;98191.73;;;17.07;49.76
56992;BME280;42885;49.754;18.636;2024-03-22T14:28:22;98182.61;;;16.80;48.68
56992;BME280;42885;49.754;18.636;2024-03-22T14:31:11;98182.17;;;17.16;47.34
56992;BME280;42885;49.754;18.636;2024-03-22T14:34:01;98183.58;;;17.40;45.97
56992;BME280;42885;49.754;18.636;2024-03-22T14:36:50;98171.80;;;17.78;45.75
56992;BME280;42885;49.754;18.636;2024-03-22T14:39:39;98167.13;;;18.57;44.93
56992;BME280;42885;49.754;18.636;2024-03-22T14:42:29;98162.94;;;18.26;44.52
56992;BME280;42885;49.754;18.636;2024-03-22T14:45:19;98159.97;;;18.15;44.50
56992;BME280;42885;49.754;18.636;2024-03-22T14:48:08;98162.50;;;17.87;43.85